Time,TemperatureF,DewpointF,PressureIn,WindDirection,WindDirectionDegrees,WindSpeedMPH,WindSpeedGustMPH,Humidity,HourlyPrecipIn,Conditions,Clouds,dailyrainin,SoftwareType,DateUTC
2013-04-18 00:14:00,57.2,56.6,29.93,ENE,67,0.0,-999.0,98,-99.99,,,0.00,Acu-Link.com,2013-04-18 04:14:00,
2013-04-18 00:29:00,57.0,56.4,29.93,NNW,337,0.0,-999.0,98,-99.99,,,0.00,Acu-Link.com,2013-04-18 04:29:00,
2013-04-18 00:45:00,57.0,56.4,29.93,NE,45,0.0,-999.0,98,-99.99,,,0.00,Acu-Link.com,2013-04-18 04:45:00,
2013-04-18 01:00:00,56.8,56.2,29.92,ENE,67,0.0,-999.0,98,-99.99,,,0.00,Acu-Link.com,2013-04-18 05:00:00,
2013-04-18 01:15:00,56.3,55.7,29.91,ENE,67,0.0,-999.0,98,-99.99,,,0.00,Acu-Link.com,2013-04-18 05:15:00,
2013-04-18 01:30:00,56.5,55.9,29.91,NE,45,0.0,-999.0,98,-99.99,,,0.00,Acu-Link.com,2013-04-18 05:30:00,
2013-04-18 01:45:00,56.5,55.9,29.91,NE,45,0.0,-999.0,98,-99.99,,,0.00,Acu-Link.com,2013-04-18 05:45:00,
2013-04-18 02:00:00,56.1,55.5,29.90,ENE,67,0.0,-999.0,98,-99.99,,,0.00,Acu-Link.com,2013-04-18 06:00:00,
2013-04-18 02:15:00,55.6,55.0,29.89,WSW,247,0.0,-999.0,98,-99.99,,,0.00,Acu-Link.com,2013-04-18 06:15:00,
2013-04-18 02:31:00,55.6,55.0,29.90,West,270,0.0,-999.0,98,-99.99,,,0.00,Acu-Link.com,2013-04-18 06:31:00,
2013-04-18 03:16:00,56.5,55.9,29.92,NNE,22,0.0,-999.0,98,-99.99,,,0.00,Acu-Link.com,2013-04-18 07:16:00,
2013-04-18 03:31:00,56.1,55.5,29.92,ENE,67,0.0,-999.0,98,-99.99,,,0.00,Acu-Link.com,2013-04-18 07:31:00,
2013-04-18 03:47:00,55.8,55.2,29.92,NNE,22,0.0,-999.0,98,-99.99,,,0.00,Acu-Link.com,2013-04-18 07:47:00,
2013-04-18 04:33:00,55.6,55.0,29.92,WNW,292,0.0,-999.0,98,-99.99,,,0.00,Acu-Link.com,2013-04-18 08:33:00,
2013-04-18 04:48:00,55.6,55.0,29.92,NE,45,0.0,-999.0,98,-99.99,,,0.00,Acu-Link.com,2013-04-18 08:48:00,
2013-04-18 05:04:00,55.6,55.0,29.92,SW,225,0.0,-999.0,98,-99.99,,,0.00,Acu-Link.com,2013-04-18 09:04:00,
2013-04-18 05:19:00,55.2,54.6,29.92,East,90,0.0,-999.0,98,-99.99,,,0.00,Acu-Link.com,2013-04-18 09:19:00,
2013-04-18 05:34:00,54.7,54.1,29.92,West,270,0.0,-999.0,98,-99.99,,,0.00,Acu-Link.com,2013-04-18 09:34:00,
2013-04-18 05:49:00,55.0,54.4,29.92,ENE,67,0.0,-999.0,98,-99.99,,,0.00,Acu-Link.com,2013-04-18 09:49:00,
2013-04-18 06:04:00,54.9,54.3,29.92,NE,45,0.0,-999.0,98,-99.99,,,0.00,Acu-Link.com,2013-04-18 10:04:00,
2013-04-18 06:20:00,54.7,54.1,29.92,East,90,0.0,-999.0,98,-99.99,,,0.00,Acu-Link.com,2013-04-18 10:20:00,
2013-04-18 06:35:00,54.5,53.9,29.92,SE,135,0.0,-999.0,98,-99.99,,,0.00,Acu-Link.com,2013-04-18 10:35:00,
2013-04-18 06:50:00,54.1,53.5,29.92,ENE,67,0.0,-999.0,98,-99.99,,,0.00,Acu-Link.com,2013-04-18 10:50:00,
2013-04-18 07:05:00,54.7,54.1,29.93,NNE,22,0.0,-999.0,98,-99.99,,,0.00,Acu-Link.com,2013-04-18 11:05:00,
2013-04-18 07:21:00,55.2,54.6,29.93,East,90,0.0,-999.0,98,-99.99,,,0.00,Acu-Link.com,2013-04-18 11:21:00,
2013-04-18 07:51:00,56.7,56.1,29.94,NE,45,0.0,-999.0,98,-99.99,,,0.00,Acu-Link.com,2013-04-18 11:51:00,
2013-04-18 08:06:00,57.7,57.1,29.94,NE,45,0.0,-999.0,98,-99.99,,,0.00,Acu-Link.com,2013-04-18 12:06:00,
2013-04-18 08:21:00,58.8,58.2,29.93,SW,225,0.0,-999.0,98,-99.99,,,0.00,Acu-Link.com,2013-04-18 12:21:00,
2013-04-18 08:37:00,59.9,59.3,29.93,East,90,0.0,-999.0,98,-99.99,,,0.00,Acu-Link.com,2013-04-18 12:37:00,
2013-04-18 08:52:00,60.6,60.0,29.94,NNW,337,0.0,-999.0,98,-99.99,,,0.00,Acu-Link.com,2013-04-18 12:52:00,
2013-04-18 09:07:00,61.5,60.9,29.95,SSW,202,0.0,-999.0,98,-99.99,,,0.00,Acu-Link.com,2013-04-18 13:07:00,
2013-04-18 09:22:00,61.7,61.1,29.94,SE,135,1.1,-999.0,98,-99.99,,,0.00,Acu-Link.com,2013-04-18 13:22:00,
2013-04-18 09:37:00,62.1,61.5,29.94,NW,315,2.2,-999.0,98,-99.99,,,0.00,Acu-Link.com,2013-04-18 13:37:00,
2013-04-18 09:53:00,62.8,62.2,29.94,NE,45,1.1,-999.0,98,-99.99,,,0.00,Acu-Link.com,2013-04-18 13:53:00,
2013-04-18 10:08:00,62.2,61.6,29.95,SSW,202,2.7,-999.0,98,-99.99,,,0.00,Acu-Link.com,2013-04-18 14:08:00,
2013-04-18 10:23:00,63.5,62.9,29.95,East,90,1.1,-999.0,98,-99.99,,,0.00,Acu-Link.com,2013-04-18 14:23:00,
2013-04-18 10:38:00,63.9,63.3,29.95,NNE,22,2.2,-999.0,98,-99.99,,,0.00,Acu-Link.com,2013-04-18 14:38:00,
2013-04-18 10:53:00,63.7,63.1,29.95,NE,45,2.7,-999.0,98,-99.99,,,0.00,Acu-Link.com,2013-04-18 14:53:00,
2013-04-18 11:09:00,63.9,63.3,29.95,North,0,4.2,-999.0,98,-99.99,,,0.00,Acu-Link.com,2013-04-18 15:09:00,
2013-04-18 11:24:00,68.2,67.6,29.94,NW,315,2.7,-999.0,98,-99.99,,,0.00,Acu-Link.com,2013-04-18 15:24:00,
2013-04-18 11:39:00,69.3,68.7,29.95,NNW,337,1.7,-999.0,98,-99.99,,,0.00,Acu-Link.com,2013-04-18 15:39:00,
2013-04-18 11:54:00,68.9,68.3,29.94,East,90,2.2,-999.0,98,-99.99,,,0.00,Acu-Link.com,2013-04-18 15:54:00,
2013-04-18 12:09:00,68.4,67.8,29.94,ENE,67,2.7,-999.0,98,-99.99,,,0.00,Acu-Link.com,2013-04-18 16:09:00,
2013-04-18 12:25:00,70.5,69.9,29.93,West,270,6.3,-999.0,98,-99.99,,,0.00,Acu-Link.com,2013-04-18 16:25:00,
2013-04-18 12:40:00,72.3,71.4,29.93,NE,45,2.2,-999.0,97,-99.99,,,0.00,Acu-Link.com,2013-04-18 16:40:00,
2013-04-18 12:55:00,73.0,71.8,29.93,NNE,22,2.2,-999.0,96,-99.99,,,0.00,Acu-Link.com,2013-04-18 16:55:00,
2013-04-18 13:10:00,70.5,69.0,29.92,North,0,2.7,-999.0,95,-99.99,,,0.00,Acu-Link.com,2013-04-18 17:10:00,
2013-04-18 13:26:00,72.1,71.2,29.92,NNE,22,1.1,-999.0,97,-99.99,,,0.00,Acu-Link.com,2013-04-18 17:26:00,
2013-04-18 13:41:00,70.5,69.3,29.92,SSE,157,1.7,-999.0,96,-99.99,,,0.00,Acu-Link.com,2013-04-18 17:41:00,
2013-04-18 14:11:00,70.3,69.7,29.91,South,180,2.7,-999.0,98,-99.99,,,0.00,Acu-Link.com,2013-04-18 18:11:00,
2013-04-18 14:26:00,70.0,69.4,29.90,ESE,112,2.2,-999.0,98,-99.99,,,0.00,Acu-Link.com,2013-04-18 18:26:00,
2013-04-18 14:42:00,73.0,71.5,29.90,NE,45,3.2,-999.0,95,-99.99,,,0.00,Acu-Link.com,2013-04-18 18:42:00,
2013-04-18 14:57:00,72.3,70.8,29.90,South,180,2.7,-999.0,95,-99.99,,,0.00,Acu-Link.com,2013-04-18 18:57:00,
2013-04-18 15:12:00,74.7,71.2,29.89,West,270,3.7,-999.0,89,-99.99,,,0.00,Acu-Link.com,2013-04-18 19:12:00,
2013-04-18 15:27:00,75.0,72.2,29.87,NNW,337,3.2,-999.0,91,-99.99,,,0.00,Acu-Link.com,2013-04-18 19:27:00,
2013-04-18 15:42:00,75.7,71.2,29.86,SE,135,3.2,-999.0,86,-99.99,,,0.00,Acu-Link.com,2013-04-18 19:42:00,
2013-04-18 15:58:00,74.5,69.3,29.85,West,270,3.2,-999.0,84,-99.99,,,0.00,Acu-Link.com,2013-04-18 19:58:00,
2013-04-18 16:13:00,74.1,69.3,29.84,West,270,2.2,-999.0,85,-99.99,,,0.00,Acu-Link.com,2013-04-18 20:13:00,
2013-04-18 16:28:00,75.6,71.8,29.83,West,270,2.2,-999.0,88,-99.99,,,0.00,Acu-Link.com,2013-04-18 20:28:00,
2013-04-18 16:43:00,74.7,70.6,29.83,North,0,3.7,-999.0,87,-99.99,,,0.00,Acu-Link.com,2013-04-18 20:43:00,
2013-04-18 16:58:00,73.6,69.5,29.83,South,180,1.7,-999.0,87,-99.99,,,0.00,Acu-Link.com,2013-04-18 20:58:00,
2013-04-18 17:14:00,73.8,69.7,29.82,SSE,157,2.7,-999.0,87,-99.99,,,0.00,Acu-Link.com,2013-04-18 21:14:00,
2013-04-18 17:29:00,73.2,69.8,29.81,WNW,292,1.7,-999.0,89,-99.99,,,0.00,Acu-Link.com,2013-04-18 21:29:00,
2013-04-18 17:44:00,72.5,70.0,29.81,NNE,22,3.7,-999.0,92,-99.99,,,0.00,Acu-Link.com,2013-04-18 21:44:00,
2013-04-18 17:59:00,73.4,70.0,29.81,SW,225,1.7,-999.0,89,-99.99,,,0.00,Acu-Link.com,2013-04-18 21:59:00,
2013-04-18 18:15:00,72.1,70.0,29.80,East,90,1.7,-999.0,93,-99.99,,,0.00,Acu-Link.com,2013-04-18 22:15:00,
2013-04-18 18:30:00,71.2,69.4,29.80,ESE,112,1.1,-999.0,94,-99.99,,,0.00,Acu-Link.com,2013-04-18 22:30:00,
2013-04-18 18:45:00,71.1,70.5,29.79,NNE,22,0.0,-999.0,98,-99.99,,,0.00,Acu-Link.com,2013-04-18 22:45:00,
2013-04-18 19:00:00,70.5,69.9,29.78,SSE,157,1.7,-999.0,98,-99.99,,,0.00,Acu-Link.com,2013-04-18 23:00:00,
2013-04-18 19:15:00,71.1,70.5,29.78,SE,135,0.0,-999.0,98,-99.99,,,0.00,Acu-Link.com,2013-04-18 23:15:00,
2013-04-18 19:31:00,70.0,69.1,29.79,SSW,202,2.2,-999.0,97,-99.99,,,0.00,Acu-Link.com,2013-04-18 23:31:00,
2013-04-18 19:46:00,69.3,68.7,29.78,NNE,22,1.7,-999.0,98,-99.99,,,0.00,Acu-Link.com,2013-04-18 23:46:00,
2013-04-18 20:01:00,68.4,67.8,29.78,North,0,1.7,-999.0,98,-99.99,,,0.00,Acu-Link.com,2013-04-19 00:01:00,
2013-04-18 20:16:00,67.8,67.2,29.79,SE,135,1.1,-999.0,98,-99.99,,,0.00,Acu-Link.com,2013-04-19 00:16:00,
2013-04-18 20:31:00,67.5,66.9,29.78,West,270,1.1,-999.0,98,-99.99,,,0.00,Acu-Link.com,2013-04-19 00:31:00,
2013-04-18 20:47:00,67.3,66.7,29.79,NNE,22,0.0,-999.0,98,-99.99,,,0.00,Acu-Link.com,2013-04-19 00:47:00,
2013-04-18 21:02:00,66.9,66.3,29.79,WNW,292,1.1,-999.0,98,-99.99,,,0.00,Acu-Link.com,2013-04-19 01:02:00,
2013-04-18 21:17:00,66.7,66.1,29.79,SE,135,1.7,-999.0,98,-99.99,,,0.00,Acu-Link.com,2013-04-19 01:17:00,
2013-04-18 21:32:00,66.2,65.6,29.79,SSE,157,1.7,-999.0,98,-99.99,,,0.00,Acu-Link.com,2013-04-19 01:32:00,
2013-04-18 21:47:00,66.0,65.4,29.79,West,270,2.2,-999.0,98,-99.99,,,0.00,Acu-Link.com,2013-04-19 01:47:00,
2013-04-18 22:03:00,66.0,65.4,29.78,West,270,2.2,-999.0,98,-99.99,,,0.00,Acu-Link.com,2013-04-19 02:03:00,
2013-04-18 22:18:00,65.7,65.1,29.78,WNW,292,2.2,-999.0,98,-99.99,,,0.00,Acu-Link.com,2013-04-19 02:18:00,
2013-04-18 22:33:00,64.6,64.0,29.78,South,180,1.7,-999.0,98,-99.99,,,0.00,Acu-Link.com,2013-04-19 02:33:00,
2013-04-18 22:48:00,64.6,64.0,29.77,SW,225,0.0,-999.0,98,-99.99,,,0.00,Acu-Link.com,2013-04-19 02:48:00,
2013-04-18 23:03:00,65.1,64.5,29.76,North,0,1.1,-999.0,98,-99.99,,,0.00,Acu-Link.com,2013-04-19 03:03:00,
2013-04-18 23:19:00,65.1,64.5,29.76,West,270,2.2,-999.0,98,-99.99,,,0.00,Acu-Link.com,2013-04-19 03:19:00,
2013-04-18 23:34:00,64.9,64.3,29.75,NE,45,1.1,-999.0,98,-99.99,,,0.00,Acu-Link.com,2013-04-19 03:34:00,
2013-04-18 23:49:00,64.9,64.3,29.75,North,0,1.7,-999.0,98,-99.99,,,0.00,Acu-Link.com,2013-04-19 03:49:00,